createdAt,value
2023-01-29T00:00:10.679Z,100730.97
2023-01-29T00:00:22.805Z,100729.25
2023-01-29T00:00:34.763Z,100731.81
2023-01-29T00:00:48.286Z,100733.56
2023-01-29T00:01:07.595Z,100726.69
2023-01-29T00:01:19.636Z,100733.56
2023-01-29T00:01:31.745Z,100729.25
2023-01-29T00:01:45.795Z,100725.75
2023-01-29T00:01:57.853Z,100732.47
2023-01-29T00:02:10.151Z,100733.34
2023-01-29T00:02:22.746Z,100731.63
2023-01-29T00:02:34.705Z,100725.56
2023-01-29T00:02:46.702Z,100733.97
2023-01-29T00:02:59.151Z,100731.28
2023-01-29T00:03:11.206Z,100728.59
2023-01-29T00:03:23.485Z,100726.00
2023-01-29T00:03:35.989Z,100727.59
2023-01-29T00:03:51.045Z,100725.78
2023-01-29T00:04:03.083Z,100724.91
2023-01-29T00:04:15.196Z,100730.13
2023-01-29T00:04:27.184Z,100729.28
2023-01-29T00:04:41.875Z,100722.44
2023-01-29T00:04:59.122Z,100720.72
2023-01-29T00:05:26.444Z,100735.28
2023-01-29T00:05:39.219Z,100730.16
2023-01-29T00:05:51.183Z,100731.03
2023-01-29T00:06:09.512Z,100731.84
2023-01-29T00:06:23.131Z,100729.31
2023-01-29T00:06:35.112Z,100726.78
2023-01-29T00:06:47.036Z,100731.06
2023-01-29T00:06:59.252Z,100731.13
2023-01-29T00:07:11.248Z,100733.59
2023-01-29T00:07:23.154Z,100730.81
2023-01-29T00:07:35.049Z,100734.16
2023-01-29T00:07:46.944Z,100722.94
2023-01-29T00:07:58.938Z,100729.69
2023-01-29T00:08:10.931Z,100732.16
2023-01-29T00:08:22.856Z,100739.81
2023-01-29T00:08:38.660Z,100734.59
2023-01-29T00:08:50.607Z,100728.47
2023-01-29T00:09:02.647Z,100729.09
2023-01-29T00:09:14.974Z,100729.94
2023-01-29T00:09:28.052Z,100729.03
2023-01-29T00:09:40.230Z,100729.88
2023-01-29T00:09:53.123Z,100729.69
2023-01-29T00:10:05.458Z,100733.19
2023-01-29T00:10:19.902Z,100734.94
2023-01-29T00:10:31.804Z,100734.03
2023-01-29T00:10:43.709Z,100733.97
2023-01-29T00:11:01.137Z,100725.38
2023-01-29T00:11:13.549Z,100726.94
2023-01-29T00:11:25.745Z,100729.94
2023-01-29T00:11:37.918Z,100728.78
2023-01-29T00:11:49.962Z,100730.94
2023-01-29T00:12:02.274Z,100739.69
2023-01-29T00:12:14.211Z,100730.16
2023-01-29T00:12:26.554Z,100731.19
2023-01-29T00:12:38.498Z,100731.94
2023-01-29T00:12:51.810Z,100735.34
2023-01-29T00:13:03.800Z,100738.97
2023-01-29T00:13:15.728Z,100732.91
2023-01-29T00:13:30.101Z,100727.88
2023-01-29T00:13:45.470Z,100736.31
2023-01-29T00:13:58.036Z,100738.72
2023-01-29T00:14:09.993Z,100733.59
2023-01-29T00:14:21.973Z,100735.44
2023-01-29T00:14:33.985Z,100733.03
2023-01-29T00:14:45.865Z,100729.72
2023-01-29T00:14:57.747Z,100729.81
2023-01-29T00:15:09.640Z,100733.31
2023-01-29T00:15:23.378Z,100730.00
2023-01-29T00:15:35.628Z,100728.44
2023-01-29T00:15:55.476Z,100733.72
2023-01-29T00:16:08.060Z,100733.81
2023-01-29T00:16:20.152Z,100735.63
2023-01-29T00:16:32.046Z,100735.56
2023-01-29T00:16:43.965Z,100728.69
2023-01-29T00:16:55.956Z,100735.47
2023-01-29T00:17:08.335Z,100734.53
2023-01-29T00:17:20.379Z,100728.63
2023-01-29T00:17:32.729Z,100733.72
2023-01-29T00:17:44.958Z,100733.81
2023-01-29T00:17:56.845Z,100738.22
2023-01-29T00:18:08.877Z,100738.28
2023-01-29T00:18:20.831Z,100732.38
2023-01-29T00:18:32.839Z,100738.44
2023-01-29T00:18:44.950Z,100734.22
2023-01-29T00:18:57.000Z,100741.00
2023-01-29T00:19:08.911Z,100737.91
2023-01-29T00:19:20.967Z,100732.50
2023-01-29T00:19:32.886Z,100731.47
2023-01-29T00:19:44.872Z,100739.53
2023-01-29T00:19:56.779Z,100747.97
2023-01-29T00:20:09.458Z,100738.47
2023-01-29T00:20:21.371Z,100742.75
2023-01-29T00:20:34.072Z,100738.72
2023-01-29T00:20:46.297Z,100743.00
2023-01-29T00:20:58.626Z,100741.94
2023-01-29T00:21:15.926Z,100742.69
2023-01-29T00:21:28.865Z,100745.84
2023-01-29T00:21:40.750Z,100746.44
2023-01-29T00:21:52.860Z,100741.00
2023-01-29T00:22:04.832Z,100743.63
2023-01-29T00:22:16.773Z,100746.56
2023-01-29T00:22:30.548Z,100744.19
2023-01-29T00:22:42.563Z,100744.34
2023-01-29T00:22:54.480Z,100745.25
2023-01-29T00:23:06.400Z,100748.63
2023-01-29T00:23:18.345Z,100740.72
2023-01-29T00:23:39.282Z,100742.53
2023-01-29T00:23:51.449Z,100739.63
2023-01-29T00:24:03.649Z,100745.69
2023-01-29T00:24:15.696Z,100739.38
2023-01-29T00:24:27.739Z,100741.50
2023-01-29T00:24:39.884Z,100748.09
2023-01-29T00:24:51.831Z,100741.19
2023-01-29T00:25:03.970Z,100743.47
2023-01-29T00:25:16.020Z,100739.59
2023-01-29T00:25:27.928Z,100739.84
2023-01-29T00:25:39.862Z,100738.41
2023-01-29T00:25:51.836Z,100742.94
2023-01-29T00:26:03.923Z,100740.47
2023-01-29T00:26:16.816Z,100747.25
2023-01-29T00:26:28.856Z,100742.28
2023-01-29T00:26:42.342Z,100746.59
2023-01-29T00:26:54.257Z,100740.53
2023-01-29T00:27:06.186Z,100735.38
2023-01-29T00:27:18.086Z,100740.44
2023-01-29T00:27:30.075Z,100742.28
2023-01-29T00:27:42.107Z,100742.28
2023-01-29T00:27:54.029Z,100738.09
2023-01-29T00:28:05.918Z,100744.19
2023-01-29T00:28:17.878Z,100745.91
2023-01-29T00:28:29.770Z,100735.53
2023-01-29T00:28:41.741Z,100740.63
2023-01-29T00:28:53.724Z,100742.19
2023-01-29T00:29:06.275Z,100742.13
2023-01-29T00:29:18.565Z,100744.59
2023-01-29T00:29:30.540Z,100747.91
2023-01-29T00:29:42.472Z,100740.25
2023-01-29T00:30:09.246Z,100742.84
2023-01-29T00:30:21.409Z,100744.53
2023-01-29T00:30:33.657Z,100743.72
2023-01-29T00:30:45.968Z,100743.78
2023-01-29T00:30:58.101Z,100746.31
2023-01-29T00:31:12.742Z,100745.53
2023-01-29T00:31:25.258Z,100745.53
2023-01-29T00:31:37.480Z,100748.13
2023-01-29T00:31:49.757Z,100744.69
2023-01-29T00:32:02.014Z,100745.56
2023-01-29T00:32:14.067Z,100747.19
2023-01-29T00:32:26.037Z,100742.81
2023-01-29T00:32:38.257Z,100743.56
2023-01-29T00:32:50.256Z,100744.31
2023-01-29T00:33:02.472Z,100745.22
2023-01-29T00:33:14.482Z,100746.03
2023-01-29T00:33:28.743Z,100750.34
2023-01-29T00:33:41.200Z,100745.25
2023-01-29T00:33:56.272Z,100743.56
2023-01-29T00:34:08.177Z,100747.03
2023-01-29T00:34:20.289Z,100744.63
2023-01-29T00:34:32.237Z,100750.72
2023-01-29T00:34:44.200Z,100747.41
2023-01-29T00:34:56.143Z,100744.03
2023-01-29T00:35:09.081Z,100737.31
2023-01-29T00:35:21.015Z,100749.38
2023-01-29T00:35:33.087Z,100752.84
2023-01-29T00:35:45.213Z,100751.97
2023-01-29T00:35:57.149Z,100746.16
2023-01-29T00:36:14.299Z,100749.66
2023-01-29T00:36:26.714Z,100749.75
2023-01-29T00:36:38.737Z,100745.59
2023-01-29T00:36:50.671Z,100748.25
2023-01-29T00:37:04.842Z,100755.19
2023-01-29T00:37:19.679Z,100751.00
2023-01-29T00:37:31.738Z,100741.72
2023-01-29T00:37:43.727Z,100748.63
2023-01-29T00:37:56.454Z,100744.41
2023-01-29T00:38:09.014Z,100745.38
2023-01-29T00:38:20.948Z,100746.31
2023-01-29T00:38:34.318Z,100747.25
2023-01-29T00:38:58.569Z,100749.06
2023-01-29T00:39:11.063Z,100747.50
2023-01-29T00:39:31.448Z,100746.72
2023-01-29T00:39:51.277Z,100744.34
2023-01-29T00:40:04.773Z,100748.50
2023-01-29T00:40:17.497Z,100748.47
2023-01-29T00:40:49.822Z,100744.06
2023-01-29T00:41:24.972Z,100743.78
2023-01-29T00:41:56.760Z,100749.97
2023-01-29T00:42:27.028Z,100760.31
2023-01-29T00:42:57.451Z,100749.16
2023-01-29T00:43:27.726Z,100754.22
2023-01-29T00:43:58.047Z,100744.78
2023-01-29T00:44:28.921Z,100744.72
2023-01-29T00:44:58.898Z,100741.09
2023-01-29T00:45:11.655Z,100742.75
2023-01-29T00:45:23.628Z,100743.69
2023-01-29T00:45:38.656Z,100747.09
2023-01-29T00:45:50.580Z,100736.88
2023-01-29T00:46:02.558Z,100743.66
2023-01-29T00:46:14.543Z,100744.41
2023-01-29T00:46:26.449Z,100734.25
2023-01-29T00:46:38.576Z,100736.06
2023-01-29T00:46:50.780Z,100739.22
2023-01-29T00:47:03.735Z,100746.06
2023-01-29T00:47:30.790Z,100741.69
2023-01-29T00:47:42.899Z,100735.00
2023-01-29T00:47:54.922Z,100740.94
2023-01-29T00:48:06.973Z,100737.56
2023-01-29T00:48:18.885Z,100747.06
2023-01-29T00:48:30.823Z,100742.94
2023-01-29T00:48:42.798Z,100735.13
2023-01-29T00:48:57.635Z,100738.97
2023-01-29T00:49:11.053Z,100737.03
2023-01-29T00:49:23.273Z,100742.78
2023-01-29T00:49:37.559Z,100742.94
2023-01-29T00:49:49.479Z,100736.97
2023-01-29T00:50:03.958Z,100745.59
2023-01-29T00:50:16.319Z,100732.75
2023-01-29T00:50:28.577Z,100734.41
2023-01-29T00:50:40.505Z,100743.75
2023-01-29T00:50:52.409Z,100743.72
2023-01-29T00:51:04.701Z,100743.47
2023-01-29T00:51:16.999Z,100741.59
2023-01-29T00:51:28.981Z,100744.72
2023-01-29T00:51:40.954Z,100741.34
2023-01-29T00:52:11.326Z,100741.41
2023-01-29T00:52:23.884Z,100739.03
2023-01-29T00:52:40.785Z,100736.47
2023-01-29T00:52:55.500Z,100740.59
2023-01-29T00:53:07.520Z,100743.16
2023-01-29T00:53:19.945Z,100734.75
2023-01-29T00:53:31.890Z,100742.53
2023-01-29T00:53:43.857Z,100734.84
2023-01-29T00:53:58.231Z,100743.31
2023-01-29T00:54:10.360Z,100743.81
2023-01-29T00:54:22.256Z,100740.16
2023-01-29T00:54:34.380Z,100743.56
2023-01-29T00:54:46.288Z,100737.72
2023-01-29T00:55:00.460Z,100734.09
2023-01-29T00:55:12.593Z,100737.44
2023-01-29T00:55:24.534Z,100739.25
2023-01-29T00:55:36.599Z,100739.38
2023-01-29T00:55:48.543Z,100739.41
2023-01-29T00:56:00.560Z,100739.19
2023-01-29T00:56:12.453Z,100738.47
2023-01-29T00:56:28.639Z,100737.72
2023-01-29T00:56:40.606Z,100733.66
2023-01-29T00:56:52.558Z,100738.13
2023-01-29T00:57:04.581Z,100732.88
2023-01-29T00:57:16.513Z,100737.19
2023-01-29T00:57:31.226Z,100735.53
2023-01-29T00:57:43.250Z,100739.75
2023-01-29T00:57:55.184Z,100741.34
2023-01-29T00:58:07.084Z,100737.88
2023-01-29T00:58:22.563Z,100741.34
2023-01-29T00:58:34.619Z,100736.06
2023-01-29T00:58:46.524Z,100742.03
2023-01-29T00:58:58.427Z,100743.78
2023-01-29T00:59:10.322Z,100739.59
2023-01-29T00:59:22.235Z,100741.50
2023-01-29T00:59:34.173Z,100741.66
2023-01-29T00:59:46.134Z,100740.00
2023-01-29T00:59:58.047Z,100731.59
2023-01-29T01:00:16.148Z,100736.81
2023-01-29T01:00:28.213Z,100740.31
2023-01-29T01:00:40.189Z,100736.25
2023-01-29T01:00:52.266Z,100740.63
2023-01-29T01:01:04.455Z,100738.97
2023-01-29T01:01:38.930Z,100736.47
2023-01-29T01:02:09.626Z,100735.97
2023-01-29T01:02:42.637Z,100737.00
2023-01-29T01:03:06.517Z,100733.84
2023-01-29T01:03:18.623Z,100727.19
2023-01-29T01:03:35.133Z,100729.81
2023-01-29T01:03:47.169Z,100728.19
2023-01-29T01:03:59.261Z,100732.09
2023-01-29T01:04:12.219Z,100733.78
2023-01-29T01:04:24.437Z,100734.56
2023-01-29T01:04:36.414Z,100733.69
2023-01-29T01:04:48.356Z,100734.56
2023-01-29T01:05:03.035Z,100732.84
2023-01-29T01:05:19.748Z,100730.34
2023-01-29T01:05:32.256Z,100725.25
2023-01-29T01:05:44.581Z,100731.09
2023-01-29T01:06:07.312Z,100732.22
2023-01-29T01:06:19.303Z,100728.53
2023-01-29T01:06:31.450Z,100731.03
2023-01-29T01:06:43.695Z,100731.28
2023-01-29T01:06:55.708Z,100736.06
2023-01-29T01:07:08.173Z,100734.31
2023-01-29T01:07:20.506Z,100733.56
2023-01-29T01:07:32.570Z,100740.56
2023-01-29T01:07:52.633Z,100737.38
2023-01-29T01:08:24.945Z,100734.06
2023-01-29T01:08:55.354Z,100734.97
2023-01-29T01:09:27.127Z,100735.81
2023-01-29T01:09:57.730Z,100737.41
2023-01-29T01:10:24.181Z,100737.41
2023-01-29T01:10:36.121Z,100739.78
2023-01-29T01:11:02.186Z,100733.75
2023-01-29T01:11:14.375Z,100733.66
2023-01-29T01:11:26.382Z,100742.22
2023-01-29T01:11:38.267Z,100738.78
2023-01-29T01:11:51.544Z,100729.31
2023-01-29T01:12:06.624Z,100735.09
2023-01-29T01:12:18.552Z,100735.97
2023-01-29T01:12:31.005Z,100736.81
2023-01-29T01:12:43.025Z,100739.44
2023-01-29T01:12:58.407Z,100728.38
2023-01-29T01:13:10.320Z,100732.69
2023-01-29T01:13:22.228Z,100731.69
2023-01-29T01:13:34.610Z,100724.75
2023-01-29T01:13:46.770Z,100728.13
2023-01-29T01:14:02.099Z,100730.03
2023-01-29T01:14:14.240Z,100727.34
2023-01-29T01:14:26.562Z,100732.44
2023-01-29T01:14:38.514Z,100733.34
2023-01-29T01:14:50.531Z,100734.25
2023-01-29T01:15:02.518Z,100729.91
2023-01-29T01:15:14.554Z,100731.59
2023-01-29T01:15:44.422Z,100728.09
2023-01-29T01:15:56.432Z,100734.91
2023-01-29T01:16:16.662Z,100731.44
2023-01-29T01:16:28.744Z,100739.09
2023-01-29T01:16:40.757Z,100739.03
2023-01-29T01:16:52.685Z,100731.38
2023-01-29T01:17:04.653Z,100735.66
2023-01-29T01:17:16.855Z,100734.75
2023-01-29T01:17:28.781Z,100726.94
2023-01-29T01:17:40.723Z,100733.03
2023-01-29T01:17:57.888Z,100742.50
2023-01-29T01:18:09.900Z,100731.97
2023-01-29T01:18:23.787Z,100734.56
2023-01-29T01:18:36.485Z,100732.81
2023-01-29T01:18:48.460Z,100735.38
2023-01-29T01:19:00.376Z,100737.94
2023-01-29T01:19:13.765Z,100736.13
2023-01-29T01:19:25.732Z,100736.13
2023-01-29T01:19:37.686Z,100737.13
2023-01-29T01:19:49.822Z,100734.41
2023-01-29T01:20:02.111Z,100744.72
2023-01-29T01:20:14.828Z,100740.34
2023-01-29T01:20:29.663Z,100742.09
2023-01-29T01:20:41.587Z,100741.22
2023-01-29T01:20:59.460Z,100739.53
2023-01-29T01:21:11.753Z,100741.34
2023-01-29T01:21:23.829Z,100738.84
2023-01-29T01:21:35.866Z,100732.81
2023-01-29T01:21:48.289Z,100740.59
2023-01-29T01:22:00.247Z,100740.69
2023-01-29T01:22:12.175Z,100739.84
2023-01-29T01:22:24.075Z,100738.25
2023-01-29T01:22:36.024Z,100740.88
2023-01-29T01:22:49.087Z,100742.69
2023-01-29T01:23:01.210Z,100740.97
2023-01-29T01:23:13.096Z,100742.56
2023-01-29T01:23:25.546Z,100741.59
2023-01-29T01:23:37.488Z,100731.38
2023-01-29T01:23:51.828Z,100738.19
2023-01-29T01:24:05.746Z,100740.56
2023-01-29T01:24:17.893Z,100731.13
2023-01-29T01:24:29.966Z,100734.66
2023-01-29T01:24:42.011Z,100736.47
2023-01-29T01:24:53.945Z,100732.34
2023-01-29T01:25:06.312Z,100735.00
2023-01-29T01:25:18.804Z,100741.75
2023-01-29T01:25:30.971Z,100731.44
2023-01-29T01:25:42.932Z,100739.75
2023-01-29T01:25:55.265Z,100744.97
2023-01-29T01:26:10.991Z,100741.41
2023-01-29T01:26:22.960Z,100738.03
2023-01-29T01:26:35.191Z,100738.19
2023-01-29T01:26:47.088Z,100736.47
2023-01-29T01:26:59.046Z,100736.38
2023-01-29T01:27:11.240Z,100741.25
2023-01-29T01:27:23.380Z,100734.66
2023-01-29T01:27:37.648Z,100737.34
2023-01-29T01:27:55.915Z,100740.00
2023-01-29T01:28:09.443Z,100745.28
2023-01-29T01:28:21.364Z,100740.31
2023-01-29T01:28:33.300Z,100734.47
2023-01-29T01:28:45.196Z,100737.97
2023-01-29T01:28:57.104Z,100734.66
2023-01-29T01:29:09.152Z,100739.06
2023-01-29T01:29:21.480Z,100737.41
2023-01-29T01:29:33.459Z,100739.22
2023-01-29T01:29:46.758Z,100741.03
2023-01-29T01:29:58.803Z,100741.09
2023-01-29T01:30:16.205Z,100740.38
2023-01-29T01:30:28.460Z,100737.69
2023-01-29T01:30:40.432Z,100740.38
2023-01-29T01:30:52.419Z,100743.06
2023-01-29T01:31:12.639Z,100737.19
2023-01-29T01:31:25.234Z,100741.47
2023-01-29T01:31:37.524Z,100739.81
2023-01-29T01:31:49.543Z,100743.22
2023-01-29T01:32:01.654Z,100741.56
2023-01-29T01:32:13.999Z,100743.31
2023-01-29T01:32:26.106Z,100743.28
2023-01-29T01:32:39.014Z,100743.94
2023-01-29T01:32:51.047Z,100749.16
2023-01-29T01:33:03.262Z,100749.91
2023-01-29T01:33:15.151Z,100747.28
2023-01-29T01:33:27.100Z,100746.53
2023-01-29T01:33:40.361Z,100743.88
2023-01-29T01:33:54.273Z,100739.75
2023-01-29T01:34:06.675Z,100745.66
2023-01-29T01:34:18.616Z,100746.44
2023-01-29T01:34:30.727Z,100751.56
2023-01-29T01:34:43.170Z,100747.31
2023-01-29T01:34:55.282Z,100748.59
2023-01-29T01:35:08.621Z,100749.94
2023-01-29T01:35:20.546Z,100748.75
2023-01-29T01:35:32.441Z,100753.66
2023-01-29T01:35:44.343Z,100750.88
2023-01-29T01:36:01.762Z,100752.75
2023-01-29T01:36:13.939Z,100750.19
2023-01-29T01:36:25.953Z,100745.13
2023-01-29T01:36:37.834Z,100749.53
2023-01-29T01:36:49.881Z,100751.25
2023-01-29T01:37:04.357Z,100744.47
2023-01-29T01:37:16.273Z,100750.41
2023-01-29T01:37:28.253Z,100748.69
2023-01-29T01:37:40.673Z,100745.28
2023-01-29T01:37:55.306Z,100748.84
2023-01-29T01:38:07.287Z,100742.28
2023-01-29T01:38:19.175Z,100740.72
2023-01-29T01:38:31.276Z,100746.00
2023-01-29T01:38:46.305Z,100739.34
2023-01-29T01:38:58.657Z,100745.50
2023-01-29T01:39:10.648Z,100748.19
2023-01-29T01:39:23.914Z,100746.53
2023-01-29T01:39:35.838Z,100746.69
2023-01-29T01:39:48.937Z,100734.84
2023-01-29T01:40:00.848Z,100743.47
2023-01-29T01:40:18.370Z,100738.44
2023-01-29T01:40:31.125Z,100744.47
2023-01-29T01:40:46.688Z,100743.97
2023-01-29T01:40:58.658Z,100744.66
2023-01-29T01:41:20.007Z,100745.59
2023-01-29T01:41:32.205Z,100749.66
2023-01-29T01:41:44.480Z,100743.56
2023-01-29T01:41:56.467Z,100753.38
2023-01-29T01:42:14.536Z,100746.88
2023-01-29T01:42:32.210Z,100742.06
2023-01-29T01:42:47.148Z,100737.88
2023-01-29T01:43:01.167Z,100749.00
2023-01-29T01:43:13.525Z,100737.13
2023-01-29T01:43:25.436Z,100744.03
2023-01-29T01:43:52.403Z,100749.38
2023-01-29T01:44:04.934Z,100744.41
2023-01-29T01:44:52.386Z,100739.63
2023-01-29T01:45:08.010Z,100745.78
2023-01-29T01:45:25.844Z,100745.88
2023-01-29T01:45:38.103Z,100740.00
2023-01-29T01:45:50.186Z,100738.44
2023-01-29T01:46:02.196Z,100731.66
2023-01-29T01:46:19.980Z,100738.59
2023-01-29T01:46:35.875Z,100738.66
2023-01-29T01:46:47.896Z,100735.25
2023-01-29T01:47:01.642Z,100732.75
2023-01-29T01:47:15.535Z,100738.72
2023-01-29T01:47:52.768Z,100738.59
2023-01-29T01:48:13.084Z,100736.72
2023-01-29T01:48:26.507Z,100740.28
2023-01-29T01:48:41.603Z,100737.47
2023-01-29T01:49:02.792Z,100741.69
2023-01-29T01:49:18.923Z,100737.47
2023-01-29T01:49:34.094Z,100739.28
2023-01-29T01:49:47.226Z,100743.69
2023-01-29T01:50:07.624Z,100736.06
2023-01-29T01:50:29.066Z,100737.06
2023-01-29T01:50:49.234Z,100736.22
2023-01-29T01:51:05.733Z,100735.41
2023-01-29T01:51:18.994Z,100734.50
2023-01-29T01:51:38.946Z,100739.69
2023-01-29T01:51:52.604Z,100740.53
2023-01-29T01:52:04.917Z,100730.19
2023-01-29T01:52:19.027Z,100734.50
2023-01-29T01:52:32.436Z,100732.69
2023-01-29T01:52:49.334Z,100728.34
2023-01-29T01:53:07.380Z,100731.81
2023-01-29T01:53:29.432Z,100734.34
2023-01-29T01:54:09.992Z,100735.91
2023-01-29T01:54:26.661Z,100734.78
2023-01-29T01:54:38.662Z,100735.63
2023-01-29T01:54:51.512Z,100733.66
2023-01-29T01:55:04.034Z,100735.16
2023-01-29T01:55:19.122Z,100735.22
2023-01-29T01:55:38.958Z,100725.06
2023-01-29T01:55:56.571Z,100734.47
2023-01-29T01:56:14.244Z,100732.75
2023-01-29T01:56:38.296Z,100731.91
2023-01-29T01:56:56.550Z,100728.50
2023-01-29T01:57:16.348Z,100736.97
2023-01-29T01:57:30.979Z,100727.66
2023-01-29T01:57:45.966Z,100724.97
2023-01-29T01:58:08.838Z,100729.25
2023-01-29T01:58:26.844Z,100728.38
2023-01-29T01:58:47.292Z,100736.81
2023-01-29T01:58:59.582Z,100732.50
2023-01-29T01:59:15.677Z,100726.47
2023-01-29T01:59:27.623Z,100733.03
2023-01-29T01:59:40.436Z,100737.19
2023-01-29T02:00:09.941Z,100738.19
2023-01-29T02:00:24.612Z,100733.19
2023-01-29T02:00:37.392Z,100732.44
2023-01-29T02:00:49.994Z,100732.50
2023-01-29T02:01:06.215Z,100729.94
2023-01-29T02:01:21.323Z,100725.56
2023-01-29T02:01:33.569Z,100728.22
2023-01-29T02:01:50.706Z,100726.56
2023-01-29T02:02:21.503Z,100725.81
2023-01-29T02:02:51.898Z,100725.13
2023-01-29T02:03:24.419Z,100727.44
2023-01-29T02:04:01.297Z,100724.13
2023-01-29T02:04:39.856Z,100723.16
2023-01-29T02:05:11.759Z,100733.03
2023-01-29T02:05:42.720Z,100728.50
2023-01-29T02:06:16.696Z,100724.88
2023-01-29T02:06:47.653Z,100729.63
2023-01-29T02:07:21.443Z,100725.69
2023-01-29T02:07:52.637Z,100726.53
2023-01-29T02:08:23.494Z,100731.66
2023-01-29T02:09:06.091Z,100728.47
2023-01-29T02:09:38.847Z,100727.38
2023-01-29T02:09:53.018Z,100728.19
2023-01-29T02:10:12.695Z,100728.25
2023-01-29T02:10:25.145Z,100725.75
2023-01-29T02:10:48.090Z,100730.19
2023-01-29T02:11:00.959Z,100730.91
2023-01-29T02:11:13.254Z,100728.28
2023-01-29T02:11:25.286Z,100724.09
2023-01-29T02:11:38.291Z,100727.41
2023-01-29T02:11:51.540Z,100727.28
2023-01-29T02:12:07.079Z,100722.06
2023-01-29T02:12:21.090Z,100729.66
2023-01-29T02:12:33.174Z,100722.81
2023-01-29T02:12:46.068Z,100724.72
2023-01-29T02:12:58.074Z,100726.53
2023-01-29T02:13:10.979Z,100729.28
2023-01-29T02:13:23.767Z,100725.03
2023-01-29T02:13:36.289Z,100727.56
2023-01-29T02:13:53.418Z,100725.88
2023-01-29T02:14:05.460Z,100734.22
2023-01-29T02:14:17.489Z,100728.81
2023-01-29T02:14:31.849Z,100724.56
2023-01-29T02:14:44.479Z,100723.88
2023-01-29T02:14:56.908Z,100731.66
2023-01-29T02:15:10.208Z,100727.47
2023-01-29T02:15:22.186Z,100728.19
2023-01-29T02:15:34.198Z,100726.53
2023-01-29T02:15:49.665Z,100729.16
2023-01-29T02:16:01.680Z,100724.25
2023-01-29T02:16:13.581Z,100727.00
2023-01-29T02:16:25.895Z,100726.19
2023-01-29T02:16:38.313Z,100727.97
2023-01-29T02:16:50.268Z,100723.75
2023-01-29T02:17:02.332Z,100728.13
2023-01-29T02:17:17.192Z,100729.13
2023-01-29T02:17:29.407Z,100730.22
2023-01-29T02:17:42.226Z,100731.13
2023-01-29T02:17:54.620Z,100724.06
2023-01-29T02:18:07.009Z,100732.50
2023-01-29T02:18:22.819Z,100731.69
2023-01-29T02:18:38.076Z,100728.34
2023-01-29T02:18:50.731Z,100728.28
2023-01-29T02:19:06.434Z,100734.16
2023-01-29T02:19:49.663Z,100730.53
2023-01-29T02:20:26.694Z,100732.13
2023-01-29T02:20:43.872Z,100734.44
2023-01-29T02:21:01.651Z,100732.09
2023-01-29T02:21:29.107Z,100730.34
2023-01-29T02:21:49.840Z,100735.25
2023-01-29T02:22:20.784Z,100731.81
2023-01-29T02:22:55.240Z,100726.66
2023-01-29T02:23:31.226Z,100725.16
2023-01-29T02:23:56.835Z,100725.00
2023-01-29T02:24:34.013Z,100727.38
2023-01-29T02:25:13.593Z,100726.88
2023-01-29T02:25:59.191Z,100732.00
2023-01-29T02:26:14.165Z,100731.25
2023-01-29T02:26:37.174Z,100726.88
2023-01-29T02:27:10.507Z,100728.47
2023-01-29T02:27:44.449Z,100731.03
2023-01-29T02:28:43.463Z,100730.28
2023-01-29T02:29:22.593Z,100732.16
2023-01-29T02:29:55.218Z,100728.69
2023-01-29T02:30:37.113Z,100725.53
2023-01-29T02:31:11.781Z,100728.16
2023-01-29T02:31:23.707Z,100734.84
2023-01-29T02:31:44.262Z,100734.03
2023-01-29T02:32:25.151Z,100735.06
2023-01-29T02:32:54.460Z,100728.19
2023-01-29T02:33:40.844Z,100735.19
2023-01-29T02:34:20.725Z,100741.81
2023-01-29T02:35:15.978Z,100738.34
2023-01-29T02:35:31.820Z,100735.13
2023-01-29T02:35:52.209Z,100738.13
2023-01-29T02:36:22.179Z,100744.16
2023-01-29T02:36:49.201Z,100738.75
2023-01-29T02:37:11.024Z,100743.88
2023-01-29T02:37:34.901Z,100741.25
2023-01-29T02:38:19.707Z,100738.69
2023-01-29T02:38:37.579Z,100735.56
2023-01-29T02:38:49.460Z,100739.03
2023-01-29T02:39:23.435Z,100739.03
2023-01-29T02:39:47.937Z,100737.22
2023-01-29T02:40:17.190Z,100742.56
2023-01-29T02:40:35.086Z,100735.72
2023-01-29T02:41:12.664Z,100738.13
2023-01-29T02:41:32.458Z,100733.81
2023-01-29T02:41:54.720Z,100739.66
2023-01-29T02:42:12.575Z,100732.84
2023-01-29T02:42:44.845Z,100736.44
2023-01-29T02:43:06.669Z,100733.81
2023-01-29T02:43:51.716Z,100738.03
2023-01-29T02:44:08.376Z,100730.00
2023-01-29T02:44:27.141Z,100726.81
2023-01-29T02:44:45.131Z,100731.09
2023-01-29T02:45:18.814Z,100732.78
2023-01-29T02:45:43.515Z,100738.75
2023-01-29T02:46:02.945Z,100731.94
2023-01-29T02:46:31.035Z,100729.31
2023-01-29T02:46:58.642Z,100730.97
2023-01-29T02:47:28.982Z,100734.22
2023-01-29T02:47:51.411Z,100733.44
2023-01-29T02:48:03.580Z,100732.09
2023-01-29T02:48:22.436Z,100727.91
2023-01-29T02:48:42.976Z,100731.41
2023-01-29T02:49:13.189Z,100732.00
2023-01-29T02:49:41.096Z,100731.66
2023-01-29T02:50:12.005Z,100726.09
2023-01-29T02:50:37.179Z,100722.28
2023-01-29T02:51:05.317Z,100733.41
2023-01-29T02:51:24.755Z,100729.56
2023-01-29T02:51:44.628Z,100727.38
2023-01-29T02:52:21.144Z,100730.00
2023-01-29T02:52:44.572Z,100728.06
2023-01-29T02:53:10.059Z,100727.63
2023-01-29T02:53:28.966Z,100728.53
2023-01-29T02:53:46.570Z,100715.97
2023-01-29T02:54:13.281Z,100719.63
2023-01-29T02:54:40.731Z,100714.84
2023-01-29T02:55:04.781Z,100718.31
2023-01-29T02:55:32.985Z,100715.03
2023-01-29T02:55:51.691Z,100717.69
2023-01-29T02:56:10.188Z,100715.50
2023-01-29T02:56:31.922Z,100713.91
2023-01-29T02:56:50.308Z,100718.91
2023-01-29T02:57:16.180Z,100716.66
2023-01-29T02:57:32.672Z,100717.56
2023-01-29T02:57:48.748Z,100716.25
2023-01-29T02:58:09.984Z,100709.41
2023-01-29T02:58:33.487Z,100720.13
2023-01-29T02:58:50.923Z,100716.31
2023-01-29T02:59:13.547Z,100713.09
2023-01-29T02:59:45.440Z,100714.91
2023-01-29T03:00:03.885Z,100718.47
2023-01-29T03:00:21.029Z,100710.00
2023-01-29T03:00:40.730Z,100714.22
2023-01-29T03:00:56.354Z,100718.47
2023-01-29T03:01:16.791Z,100717.16
2023-01-29T03:01:34.550Z,100714.50
2023-01-29T03:01:54.460Z,100711.88
2023-01-29T03:02:13.849Z,100715.19
2023-01-29T03:03:07.516Z,100714.94
2023-01-29T03:03:28.749Z,100717.22
2023-01-29T03:03:48.066Z,100722.00
2023-01-29T03:04:09.506Z,100720.00
2023-01-29T03:04:32.961Z,100713.03
2023-01-29T03:04:51.373Z,100719.44
2023-01-29T03:05:10.298Z,100717.31
2023-01-29T03:05:30.907Z,100717.81
2023-01-29T03:05:56.057Z,100721.78
2023-01-29T03:06:32.790Z,100715.94
2023-01-29T03:06:53.101Z,100713.38
2023-01-29T03:07:13.601Z,100714.28
2023-01-29T03:07:45.989Z,100718.47
2023-01-29T03:08:04.189Z,100711.56
2023-01-29T03:08:36.619Z,100716.84
2023-01-29T03:09:01.425Z,100718.59
2023-01-29T03:09:23.211Z,100718.59